sensor_id;sensor_type;location;lat;lon;timestamp;P1;durP1;ratioP1;P2;durP2;ratioP2
44832;SDS011;30569;51.252;9.830;2023-08-12T00:00:00;4.78;;;2.67;;
44832;SDS011;30569;51.252;9.830;2023-08-12T00:02:33;6.50;;;3.00;;
44832;SDS011;30569;51.252;9.830;2023-08-12T00:04:59;6.55;;;2.88;;
44832;SDS011;30569;51.252;9.830;2023-08-12T00:07:25;6.22;;;2.63;;
44832;SDS011;30569;51.252;9.830;2023-08-12T00:09:51;9.02;;;3.03;;
44832;SDS011;30569;51.252;9.830;2023-08-12T00:12:16;4.72;;;2.72;;
44832;SDS011;30569;51.252;9.830;2023-08-12T00:14:42;5.97;;;2.80;;
44832;SDS011;30569;51.252;9.830;2023-08-12T00:17:07;4.72;;;3.00;;
44832;SDS011;30569;51.252;9.830;2023-08-12T00:19:33;5.30;;;3.33;;
44832;SDS011;30569;51.252;9.830;2023-08-12T00:21:58;6.53;;;2.83;;
44832;SDS011;30569;51.252;9.830;2023-08-12T00:24:24;6.55;;;3.05;;
44832;SDS011;30569;51.252;9.830;2023-08-12T00:26:49;5.32;;;2.90;;
44832;SDS011;30569;51.252;9.830;2023-08-12T00:29:15;6.70;;;3.55;;
44832;SDS011;30569;51.252;9.830;2023-08-12T00:31:40;5.10;;;3.05;;
44832;SDS011;30569;51.252;9.830;2023-08-12T00:34:06;5.43;;;2.97;;
44832;SDS011;30569;51.252;9.830;2023-08-12T00:36:32;6.82;;;2.95;;
44832;SDS011;30569;51.252;9.830;2023-08-12T00:38:57;4.30;;;2.58;;
44832;SDS011;30569;51.252;9.830;2023-08-12T00:41:23;7.15;;;3.03;;
44832;SDS011;30569;51.252;9.830;2023-08-12T00:43:48;18.02;;;3.10;;
44832;SDS011;30569;51.252;9.830;2023-08-12T00:46:14;6.47;;;2.88;;
44832;SDS011;30569;51.252;9.830;2023-08-12T00:48:40;6.05;;;3.10;;
44832;SDS011;30569;51.252;9.830;2023-08-12T00:51:06;5.63;;;3.15;;
44832;SDS011;30569;51.252;9.830;2023-08-12T00:53:32;4.70;;;2.83;;
44832;SDS011;30569;51.252;9.830;2023-08-12T00:55:57;6.38;;;3.00;;
44832;SDS011;30569;51.252;9.830;2023-08-12T00:58:23;5.40;;;3.20;;
44832;SDS011;30569;51.252;9.830;2023-08-12T01:00:49;6.82;;;3.33;;
44832;SDS011;30569;51.252;9.830;2023-08-12T01:03:15;7.70;;;3.20;;
44832;SDS011;30569;51.252;9.830;2023-08-12T01:05:41;7.40;;;3.05;;
44832;SDS011;30569;51.252;9.830;2023-08-12T01:08:06;6.47;;;3.13;;
44832;SDS011;30569;51.252;9.830;2023-08-12T01:10:33;6.18;;;3.35;;
44832;SDS011;30569;51.252;9.830;2023-08-12T01:15:57;5.25;;;3.17;;
44832;SDS011;30569;51.252;9.830;2023-08-12T01:18:25;5.40;;;3.72;;
44832;SDS011;30569;51.252;9.830;2023-08-12T01:20:52;8.32;;;3.42;;
44832;SDS011;30569;51.252;9.830;2023-08-12T01:23:18;7.68;;;3.42;;
44832;SDS011;30569;51.252;9.830;2023-08-12T01:25:45;4.65;;;2.83;;
44832;SDS011;30569;51.252;9.830;2023-08-12T01:28:11;4.93;;;2.88;;
44832;SDS011;30569;51.252;9.830;2023-08-12T01:30:39;5.38;;;3.28;;
44832;SDS011;30569;51.252;9.830;2023-08-12T01:33:21;7.28;;;3.17;;
44832;SDS011;30569;51.252;9.830;2023-08-12T01:35:57;5.43;;;3.17;;
44832;SDS011;30569;51.252;9.830;2023-08-12T01:38:30;6.55;;;3.50;;
44832;SDS011;30569;51.252;9.830;2023-08-12T01:40:56;8.63;;;3.10;;
44832;SDS011;30569;51.252;9.830;2023-08-12T01:43:24;6.60;;;2.67;;
44832;SDS011;30569;51.252;9.830;2023-08-12T01:45:50;13.25;;;3.53;;
44832;SDS011;30569;51.252;9.830;2023-08-12T01:48:15;5.47;;;3.40;;
44832;SDS011;30569;51.252;9.830;2023-08-12T01:50:41;6.07;;;3.05;;
44832;SDS011;30569;51.252;9.830;2023-08-12T01:53:11;6.10;;;3.38;;
44832;SDS011;30569;51.252;9.830;2023-08-12T01:55:37;4.70;;;2.80;;
44832;SDS011;30569;51.252;9.830;2023-08-12T01:58:02;6.03;;;3.35;;
44832;SDS011;30569;51.252;9.830;2023-08-12T02:00:28;5.20;;;3.13;;
44832;SDS011;30569;51.252;9.830;2023-08-12T02:02:53;6.93;;;3.63;;
44832;SDS011;30569;51.252;9.830;2023-08-12T02:05:19;6.25;;;3.05;;
44832;SDS011;30569;51.252;9.830;2023-08-12T02:07:45;6.22;;;3.38;;
44832;SDS011;30569;51.252;9.830;2023-08-12T02:10:10;5.85;;;3.20;;
44832;SDS011;30569;51.252;9.830;2023-08-12T02:12:36;6.13;;;2.97;;
44832;SDS011;30569;51.252;9.830;2023-08-12T02:15:01;6.75;;;3.30;;
44832;SDS011;30569;51.252;9.830;2023-08-12T02:17:27;5.05;;;3.10;;
44832;SDS011;30569;51.252;9.830;2023-08-12T02:19:52;7.90;;;3.90;;
44832;SDS011;30569;51.252;9.830;2023-08-12T02:22:18;5.50;;;3.28;;
44832;SDS011;30569;51.252;9.830;2023-08-12T02:24:44;7.10;;;3.20;;
44832;SDS011;30569;51.252;9.830;2023-08-12T02:27:09;8.38;;;3.40;;
44832;SDS011;30569;51.252;9.830;2023-08-12T02:29:35;6.63;;;3.22;;
44832;SDS011;30569;51.252;9.830;2023-08-12T02:32:00;5.80;;;3.25;;
44832;SDS011;30569;51.252;9.830;2023-08-12T02:34:26;5.00;;;2.85;;
44832;SDS011;30569;51.252;9.830;2023-08-12T02:36:51;8.13;;;3.50;;
44832;SDS011;30569;51.252;9.830;2023-08-12T02:39:17;7.47;;;3.40;;
44832;SDS011;30569;51.252;9.830;2023-08-12T02:41:42;4.80;;;3.20;;
44832;SDS011;30569;51.252;9.830;2023-08-12T02:44:08;6.72;;;3.13;;
44832;SDS011;30569;51.252;9.830;2023-08-12T02:46:33;5.53;;;3.22;;
44832;SDS011;30569;51.252;9.830;2023-08-12T02:48:59;6.25;;;3.15;;
44832;SDS011;30569;51.252;9.830;2023-08-12T02:51:24;5.97;;;2.92;;
44832;SDS011;30569;51.252;9.830;2023-08-12T02:53:50;7.38;;;3.17;;
44832;SDS011;30569;51.252;9.830;2023-08-12T02:56:15;6.13;;;3.30;;
44832;SDS011;30569;51.252;9.830;2023-08-12T02:58:41;10.73;;;3.65;;
44832;SDS011;30569;51.252;9.830;2023-08-12T03:01:07;7.13;;;3.30;;
44832;SDS011;30569;51.252;9.830;2023-08-12T03:03:32;5.05;;;3.08;;
44832;SDS011;30569;51.252;9.830;2023-08-12T03:05:58;5.18;;;3.17;;
44832;SDS011;30569;51.252;9.830;2023-08-12T03:08:24;5.32;;;3.42;;
44832;SDS011;30569;51.252;9.830;2023-08-12T03:10:49;6.25;;;3.17;;
44832;SDS011;30569;51.252;9.830;2023-08-12T03:13:15;5.85;;;3.67;;
44832;SDS011;30569;51.252;9.830;2023-08-12T03:15:40;6.80;;;3.30;;
44832;SDS011;30569;51.252;9.830;2023-08-12T03:18:07;8.80;;;3.33;;
44832;SDS011;30569;51.252;9.830;2023-08-12T03:20:33;6.70;;;3.50;;
44832;SDS011;30569;51.252;9.830;2023-08-12T03:22:58;5.18;;;3.00;;
44832;SDS011;30569;51.252;9.830;2023-08-12T03:25:25;5.68;;;3.33;;
44832;SDS011;30569;51.252;9.830;2023-08-12T03:27:50;4.97;;;3.22;;
44832;SDS011;30569;51.252;9.830;2023-08-12T03:30:16;5.25;;;3.25;;
44832;SDS011;30569;51.252;9.830;2023-08-12T03:32:42;5.22;;;3.22;;
44832;SDS011;30569;51.252;9.830;2023-08-12T03:35:07;6.32;;;3.50;;
44832;SDS011;30569;51.252;9.830;2023-08-12T03:37:34;5.70;;;3.40;;
44832;SDS011;30569;51.252;9.830;2023-08-12T03:39:59;5.20;;;3.28;;
44832;SDS011;30569;51.252;9.830;2023-08-12T03:42:25;5.18;;;3.33;;
44832;SDS011;30569;51.252;9.830;2023-08-12T03:44:50;6.95;;;3.70;;
44832;SDS011;30569;51.252;9.830;2023-08-12T03:47:16;6.03;;;3.42;;
44832;SDS011;30569;51.252;9.830;2023-08-12T03:49:46;5.57;;;3.67;;
44832;SDS011;30569;51.252;9.830;2023-08-12T03:52:12;7.65;;;3.33;;
44832;SDS011;30569;51.252;9.830;2023-08-12T03:54:37;8.50;;;3.80;;
44832;SDS011;30569;51.252;9.830;2023-08-12T03:57:03;5.40;;;3.40;;
44832;SDS011;30569;51.252;9.830;2023-08-12T03:59:29;8.73;;;3.33;;
44832;SDS011;30569;51.252;9.830;2023-08-12T04:01:54;5.20;;;3.15;;
44832;SDS011;30569;51.252;9.830;2023-08-12T04:04:20;9.40;;;3.92;;
44832;SDS011;30569;51.252;9.830;2023-08-12T04:06:46;7.68;;;4.20;;
44832;SDS011;30569;51.252;9.830;2023-08-12T04:09:16;7.88;;;3.90;;
44832;SDS011;30569;51.252;9.830;2023-08-12T04:11:42;6.10;;;3.92;;
44832;SDS011;30569;51.252;9.830;2023-08-12T04:14:07;10.90;;;4.00;;
44832;SDS011;30569;51.252;9.830;2023-08-12T04:16:33;10.43;;;3.28;;
44832;SDS011;30569;51.252;9.830;2023-08-12T04:18:59;7.55;;;4.10;;
44832;SDS011;30569;51.252;9.830;2023-08-12T04:21:24;6.80;;;3.70;;
44832;SDS011;30569;51.252;9.830;2023-08-12T04:23:50;6.70;;;3.75;;
44832;SDS011;30569;51.252;9.830;2023-08-12T04:26:15;5.15;;;3.55;;
44832;SDS011;30569;51.252;9.830;2023-08-12T04:28:41;6.55;;;4.00;;
44832;SDS011;30569;51.252;9.830;2023-08-12T04:31:07;6.35;;;3.97;;
44832;SDS011;30569;51.252;9.830;2023-08-12T04:33:33;8.45;;;3.80;;
44832;SDS011;30569;51.252;9.830;2023-08-12T04:35:58;6.95;;;4.05;;
44832;SDS011;30569;51.252;9.830;2023-08-12T04:38:24;8.40;;;3.80;;
44832;SDS011;30569;51.252;9.830;2023-08-12T04:40:52;7.43;;;4.13;;
44832;SDS011;30569;51.252;9.830;2023-08-12T04:43:18;11.48;;;4.80;;
44832;SDS011;30569;51.252;9.830;2023-08-12T04:45:44;12.77;;;3.53;;
44832;SDS011;30569;51.252;9.830;2023-08-12T04:48:11;8.48;;;3.78;;
44832;SDS011;30569;51.252;9.830;2023-08-12T04:50:37;9.43;;;4.20;;
44832;SDS011;30569;51.252;9.830;2023-08-12T04:53:03;7.13;;;3.67;;
44832;SDS011;30569;51.252;9.830;2023-08-12T04:55:31;6.28;;;4.15;;
44832;SDS011;30569;51.252;9.830;2023-08-12T04:57:58;7.57;;;3.78;;
44832;SDS011;30569;51.252;9.830;2023-08-12T05:00:23;6.78;;;4.03;;
44832;SDS011;30569;51.252;9.830;2023-08-12T05:02:49;7.28;;;3.28;;
44832;SDS011;30569;51.252;9.830;2023-08-12T05:05:15;8.80;;;3.88;;
44832;SDS011;30569;51.252;9.830;2023-08-12T05:07:41;5.60;;;3.60;;
44832;SDS011;30569;51.252;9.830;2023-08-12T05:10:06;7.13;;;3.60;;
44832;SDS011;30569;51.252;9.830;2023-08-12T05:12:32;10.10;;;3.67;;
44832;SDS011;30569;51.252;9.830;2023-08-12T05:14:58;6.40;;;3.65;;
44832;SDS011;30569;51.252;9.830;2023-08-12T05:17:23;6.65;;;4.05;;
44832;SDS011;30569;51.252;9.830;2023-08-12T05:19:49;6.25;;;3.50;;
44832;SDS011;30569;51.252;9.830;2023-08-12T05:22:15;6.85;;;3.97;;
44832;SDS011;30569;51.252;9.830;2023-08-12T05:24:41;6.80;;;3.95;;
44832;SDS011;30569;51.252;9.830;2023-08-12T05:27:06;6.32;;;3.97;;
44832;SDS011;30569;51.252;9.830;2023-08-12T05:29:32;6.03;;;3.33;;
44832;SDS011;30569;51.252;9.830;2023-08-12T05:31:58;8.88;;;3.85;;
44832;SDS011;30569;51.252;9.830;2023-08-12T05:34:23;6.50;;;3.97;;
44832;SDS011;30569;51.252;9.830;2023-08-12T05:36:49;9.40;;;4.38;;
44832;SDS011;30569;51.252;9.830;2023-08-12T05:39:14;9.40;;;4.00;;
44832;SDS011;30569;51.252;9.830;2023-08-12T05:41:40;10.30;;;5.07;;
44832;SDS011;30569;51.252;9.830;2023-08-12T05:44:06;7.13;;;3.85;;
44832;SDS011;30569;51.252;9.830;2023-08-12T05:46:32;7.55;;;4.10;;
44832;SDS011;30569;51.252;9.830;2023-08-12T05:48:58;7.50;;;4.15;;
44832;SDS011;30569;51.252;9.830;2023-08-12T05:51:23;6.18;;;3.47;;
44832;SDS011;30569;51.252;9.830;2023-08-12T05:53:49;6.22;;;3.53;;
44832;SDS011;30569;51.252;9.830;2023-08-12T05:56:15;7.05;;;4.05;;
44832;SDS011;30569;51.252;9.830;2023-08-12T05:58:40;9.75;;;4.53;;
44832;SDS011;30569;51.252;9.830;2023-08-12T06:01:06;7.38;;;4.13;;
44832;SDS011;30569;51.252;9.830;2023-08-12T06:03:31;6.25;;;4.45;;
44832;SDS011;30569;51.252;9.830;2023-08-12T06:05:57;6.65;;;4.28;;
44832;SDS011;30569;51.252;9.830;2023-08-12T06:08:22;7.15;;;4.32;;
44832;SDS011;30569;51.252;9.830;2023-08-12T06:10:48;6.40;;;4.22;;
44832;SDS011;30569;51.252;9.830;2023-08-12T06:13:13;7.25;;;4.40;;
44832;SDS011;30569;51.252;9.830;2023-08-12T06:15:39;10.40;;;4.22;;
44832;SDS011;30569;51.252;9.830;2023-08-12T06:18:05;7.97;;;4.05;;
44832;SDS011;30569;51.252;9.830;2023-08-12T06:20:30;6.50;;;4.03;;
44832;SDS011;30569;51.252;9.830;2023-08-12T06:22:56;7.85;;;4.10;;
44832;SDS011;30569;51.252;9.830;2023-08-12T06:25:21;8.20;;;3.90;;
44832;SDS011;30569;51.252;9.830;2023-08-12T06:27:47;9.23;;;4.55;;
44832;SDS011;30569;51.252;9.830;2023-08-12T06:30:13;7.47;;;3.97;;
44832;SDS011;30569;51.252;9.830;2023-08-12T06:32:39;8.20;;;3.65;;
44832;SDS011;30569;51.252;9.830;2023-08-12T06:35:05;7.20;;;4.00;;
44832;SDS011;30569;51.252;9.830;2023-08-12T06:37:31;7.35;;;3.90;;
44832;SDS011;30569;51.252;9.830;2023-08-12T06:39:56;7.07;;;3.65;;
44832;SDS011;30569;51.252;9.830;2023-08-12T06:42:22;7.57;;;3.65;;
44832;SDS011;30569;51.252;9.830;2023-08-12T06:44:55;5.85;;;3.92;;
44832;SDS011;30569;51.252;9.830;2023-08-12T06:47:21;5.82;;;3.58;;
44832;SDS011;30569;51.252;9.830;2023-08-12T06:49:47;7.15;;;4.03;;
44832;SDS011;30569;51.252;9.830;2023-08-12T06:52:13;7.00;;;3.78;;
44832;SDS011;30569;51.252;9.830;2023-08-12T06:54:38;9.13;;;4.03;;
44832;SDS011;30569;51.252;9.830;2023-08-12T06:57:04;7.30;;;4.03;;
44832;SDS011;30569;51.252;9.830;2023-08-12T06:59:30;6.18;;;4.28;;
44832;SDS011;30569;51.252;9.830;2023-08-12T07:01:56;9.95;;;4.80;;
44832;SDS011;30569;51.252;9.830;2023-08-12T07:04:21;9.10;;;4.28;;
44832;SDS011;30569;51.252;9.830;2023-08-12T07:06:47;9.27;;;4.10;;
44832;SDS011;30569;51.252;9.830;2023-08-12T07:09:13;8.07;;;4.32;;
44832;SDS011;30569;51.252;9.830;2023-08-12T07:11:38;6.82;;;3.80;;
44832;SDS011;30569;51.252;9.830;2023-08-12T07:14:04;5.97;;;3.85;;
44832;SDS011;30569;51.252;9.830;2023-08-12T07:16:29;8.82;;;3.85;;
44832;SDS011;30569;51.252;9.830;2023-08-12T07:18:55;5.93;;;3.42;;
44832;SDS011;30569;51.252;9.830;2023-08-12T07:21:20;7.20;;;3.88;;
44832;SDS011;30569;51.252;9.830;2023-08-12T07:23:46;6.35;;;3.53;;
44832;SDS011;30569;51.252;9.830;2023-08-12T07:26:11;7.78;;;4.10;;
44832;SDS011;30569;51.252;9.830;2023-08-12T07:28:37;5.38;;;3.58;;
44832;SDS011;30569;51.252;9.830;2023-08-12T07:31:03;11.45;;;4.03;;
44832;SDS011;30569;51.252;9.830;2023-08-12T07:33:28;5.70;;;3.78;;
44832;SDS011;30569;51.252;9.830;2023-08-12T07:35:54;5.78;;;3.70;;
44832;SDS011;30569;51.252;9.830;2023-08-12T07:38:20;6.47;;;3.42;;
44832;SDS011;30569;51.252;9.830;2023-08-12T07:40:46;5.28;;;3.08;;
44832;SDS011;30569;51.252;9.830;2023-08-12T07:43:13;6.65;;;3.63;;
44832;SDS011;30569;51.252;9.830;2023-08-12T07:45:38;6.32;;;3.65;;
44832;SDS011;30569;51.252;9.830;2023-08-12T07:48:04;8.15;;;3.40;;
44832;SDS011;30569;51.252;9.830;2023-08-12T07:50:29;5.97;;;3.47;;
44832;SDS011;30569;51.252;9.830;2023-08-12T07:52:55;7.22;;;3.40;;
44832;SDS011;30569;51.252;9.830;2023-08-12T07:55:21;5.82;;;3.67;;
44832;SDS011;30569;51.252;9.830;2023-08-12T07:57:46;7.93;;;3.70;;
44832;SDS011;30569;51.252;9.830;2023-08-12T08:00:12;8.25;;;4.43;;
44832;SDS011;30569;51.252;9.830;2023-08-12T08:02:38;6.68;;;4.18;;
44832;SDS011;30569;51.252;9.830;2023-08-12T08:05:04;7.55;;;3.90;;
44832;SDS011;30569;51.252;9.830;2023-08-12T08:07:30;5.20;;;3.30;;
44832;SDS011;30569;51.252;9.830;2023-08-12T08:09:56;5.28;;;3.30;;
44832;SDS011;30569;51.252;9.830;2023-08-12T08:12:22;8.50;;;4.40;;
44832;SDS011;30569;51.252;9.830;2023-08-12T08:14:47;7.22;;;3.63;;
44832;SDS011;30569;51.252;9.830;2023-08-12T08:17:13;9.40;;;3.97;;
44832;SDS011;30569;51.252;9.830;2023-08-12T08:19:39;6.78;;;3.80;;
44832;SDS011;30569;51.252;9.830;2023-08-12T08:22:04;9.48;;;4.00;;
44832;SDS011;30569;51.252;9.830;2023-08-12T08:24:30;6.18;;;3.42;;
44832;SDS011;30569;51.252;9.830;2023-08-12T08:26:56;5.63;;;3.30;;
44832;SDS011;30569;51.252;9.830;2023-08-12T08:29:21;8.35;;;3.60;;
44832;SDS011;30569;51.252;9.830;2023-08-12T08:31:48;6.28;;;3.65;;
44832;SDS011;30569;51.252;9.830;2023-08-12T08:34:14;5.72;;;3.03;;
44832;SDS011;30569;51.252;9.830;2023-08-12T08:36:40;7.90;;;3.42;;
44832;SDS011;30569;51.252;9.830;2023-08-12T08:39:05;5.15;;;2.90;;
44832;SDS011;30569;51.252;9.830;2023-08-12T08:41:31;5.65;;;2.92;;
44832;SDS011;30569;51.252;9.830;2023-08-12T08:44:02;4.90;;;2.97;;
44832;SDS011;30569;51.252;9.830;2023-08-12T08:46:30;5.72;;;2.75;;
44832;SDS011;30569;51.252;9.830;2023-08-12T08:48:57;5.57;;;3.20;;
44832;SDS011;30569;51.252;9.830;2023-08-12T08:51:24;7.05;;;3.33;;
44832;SDS011;30569;51.252;9.830;2023-08-12T08:53:50;4.95;;;3.20;;
44832;SDS011;30569;51.252;9.830;2023-08-12T08:56:19;5.38;;;3.08;;
44832;SDS011;30569;51.252;9.830;2023-08-12T08:58:46;5.43;;;3.10;;
44832;SDS011;30569;51.252;9.830;2023-08-12T09:01:13;6.07;;;3.00;;
44832;SDS011;30569;51.252;9.830;2023-08-12T09:03:40;5.45;;;2.97;;
44832;SDS011;30569;51.252;9.830;2023-08-12T09:06:07;6.50;;;3.20;;
44832;SDS011;30569;51.252;9.830;2023-08-12T09:08:34;6.85;;;2.92;;
44832;SDS011;30569;51.252;9.830;2023-08-12T09:11:00;6.72;;;3.35;;
44832;SDS011;30569;51.252;9.830;2023-08-12T09:13:27;5.30;;;2.95;;
44832;SDS011;30569;51.252;9.830;2023-08-12T09:15:53;6.55;;;3.00;;
44832;SDS011;30569;51.252;9.830;2023-08-12T09:18:19;4.63;;;2.58;;
44832;SDS011;30569;51.252;9.830;2023-08-12T09:20:49;4.63;;;2.65;;
44832;SDS011;30569;51.252;9.830;2023-08-12T09:23:15;5.65;;;2.88;;
44832;SDS011;30569;51.252;9.830;2023-08-12T09:25:42;5.43;;;2.60;;
44832;SDS011;30569;51.252;9.830;2023-08-12T09:28:11;7.50;;;3.15;;
44832;SDS011;30569;51.252;9.830;2023-08-12T09:30:38;5.65;;;2.70;;
44832;SDS011;30569;51.252;9.830;2023-08-12T09:33:05;5.13;;;2.80;;
44832;SDS011;30569;51.252;9.830;2023-08-12T09:35:40;6.82;;;2.88;;
44832;SDS011;30569;51.252;9.830;2023-08-12T09:38:06;5.63;;;3.10;;
44832;SDS011;30569;51.252;9.830;2023-08-12T09:40:38;5.05;;;2.90;;
44832;SDS011;30569;51.252;9.830;2023-08-12T09:43:04;6.20;;;3.08;;
44832;SDS011;30569;51.252;9.830;2023-08-12T09:45:30;6.82;;;3.00;;
44832;SDS011;30569;51.252;9.830;2023-08-12T09:47:56;5.63;;;2.90;;
44832;SDS011;30569;51.252;9.830;2023-08-12T09:50:22;6.25;;;2.90;;
44832;SDS011;30569;51.252;9.830;2023-08-12T09:52:48;6.38;;;2.95;;
44832;SDS011;30569;51.252;9.830;2023-08-12T09:55:15;6.60;;;3.28;;
44832;SDS011;30569;51.252;9.830;2023-08-12T09:57:42;6.88;;;2.85;;
44832;SDS011;30569;51.252;9.830;2023-08-12T10:00:09;6.75;;;3.17;;
44832;SDS011;30569;51.252;9.830;2023-08-12T10:02:41;6.63;;;3.58;;
44832;SDS011;30569;51.252;9.830;2023-08-12T10:05:09;8.40;;;3.00;;
44832;SDS011;30569;51.252;9.830;2023-08-12T10:07:39;7.15;;;3.78;;
44832;SDS011;30569;51.252;9.830;2023-08-12T10:10:05;6.50;;;3.47;;
44832;SDS011;30569;51.252;9.830;2023-08-12T10:12:32;4.82;;;2.80;;
44832;SDS011;30569;51.252;9.830;2023-08-12T10:14:58;5.55;;;3.30;;
44832;SDS011;30569;51.252;9.830;2023-08-12T10:17:25;9.02;;;3.30;;
44832;SDS011;30569;51.252;9.830;2023-08-12T10:19:55;5.53;;;3.15;;
44832;SDS011;30569;51.252;9.830;2023-08-12T10:22:22;8.68;;;3.20;;
44832;SDS011;30569;51.252;9.830;2023-08-12T10:24:50;5.63;;;3.20;;
44832;SDS011;30569;51.252;9.830;2023-08-12T10:27:16;7.85;;;3.25;;
44832;SDS011;30569;51.252;9.830;2023-08-12T10:29:43;6.50;;;2.95;;
44832;SDS011;30569;51.252;9.830;2023-08-12T10:32:09;7.05;;;2.92;;
44832;SDS011;30569;51.252;9.830;2023-08-12T10:34:34;7.07;;;2.92;;
44832;SDS011;30569;51.252;9.830;2023-08-12T10:37:01;7.35;;;3.30;;
44832;SDS011;30569;51.252;9.830;2023-08-12T10:39:28;8.40;;;3.25;;
44832;SDS011;30569;51.252;9.830;2023-08-12T10:41:56;6.93;;;3.15;;
44832;SDS011;30569;51.252;9.830;2023-08-12T10:44:26;6.25;;;3.30;;
44832;SDS011;30569;51.252;9.830;2023-08-12T10:46:52;5.95;;;3.40;;
44832;SDS011;30569;51.252;9.830;2023-08-12T10:49:19;8.02;;;3.20;;
44832;SDS011;30569;51.252;9.830;2023-08-12T10:51:47;5.00;;;2.85;;
44832;SDS011;30569;51.252;9.830;2023-08-12T10:54:22;7.22;;;3.25;;
44832;SDS011;30569;51.252;9.830;2023-08-12T11:04:43;5.55;;;2.65;;
44832;SDS011;30569;51.252;9.830;2023-08-12T11:07:18;4.80;;;2.53;;
44832;SDS011;30569;51.252;9.830;2023-08-12T11:09:45;4.35;;;2.60;;
44832;SDS011;30569;51.252;9.830;2023-08-12T11:12:17;5.07;;;2.60;;
44832;SDS011;30569;51.252;9.830;2023-08-12T11:14:53;7.07;;;3.00;;
44832;SDS011;30569;51.252;9.830;2023-08-12T11:17:18;5.03;;;2.42;;
44832;SDS011;30569;51.252;9.830;2023-08-12T11:19:44;6.05;;;2.45;;
44832;SDS011;30569;51.252;9.830;2023-08-12T11:22:10;6.85;;;2.75;;
44832;SDS011;30569;51.252;9.830;2023-08-12T11:24:38;4.38;;;2.60;;
44832;SDS011;30569;51.252;9.830;2023-08-12T11:27:11;5.90;;;3.17;;
44832;SDS011;30569;51.252;9.830;2023-08-12T11:29:37;4.35;;;2.17;;
44832;SDS011;30569;51.252;9.830;2023-08-12T11:32:03;6.85;;;2.00;;
44832;SDS011;30569;51.252;9.830;2023-08-12T11:34:31;4.93;;;2.17;;
44832;SDS011;30569;51.252;9.830;2023-08-12T11:36:57;4.53;;;1.70;;
44832;SDS011;30569;51.252;9.830;2023-08-12T11:39:23;3.80;;;2.08;;
44832;SDS011;30569;51.252;9.830;2023-08-12T11:41:49;4.32;;;2.25;;
44832;SDS011;30569;51.252;9.830;2023-08-12T11:44:15;3.88;;;1.70;;
44832;SDS011;30569;51.252;9.830;2023-08-12T11:46:41;6.78;;;1.80;;
44832;SDS011;30569;51.252;9.830;2023-08-12T11:49:07;3.28;;;1.60;;
44832;SDS011;30569;51.252;9.830;2023-08-12T11:51:33;3.72;;;1.70;;
44832;SDS011;30569;51.252;9.830;2023-08-12T11:54:00;2.90;;;1.42;;
44832;SDS011;30569;51.252;9.830;2023-08-12T11:56:26;3.28;;;1.33;;
44832;SDS011;30569;51.252;9.830;2023-08-12T11:58:52;3.25;;;1.40;;
44832;SDS011;30569;51.252;9.830;2023-08-12T12:01:20;6.03;;;1.23;;
44832;SDS011;30569;51.252;9.830;2023-08-12T12:03:51;2.80;;;1.30;;
44832;SDS011;30569;51.252;9.830;2023-08-12T12:06:17;4.32;;;1.40;;
44832;SDS011;30569;51.252;9.830;2023-08-12T12:08:52;3.40;;;1.35;;
44832;SDS011;30569;51.252;9.830;2023-08-12T12:11:18;2.80;;;1.30;;
44832;SDS011;30569;51.252;9.830;2023-08-12T12:13:45;3.92;;;1.30;;
44832;SDS011;30569;51.252;9.830;2023-08-12T12:16:12;3.38;;;1.38;;
44832;SDS011;30569;51.252;9.830;2023-08-12T12:18:38;5.38;;;1.58;;
44832;SDS011;30569;51.252;9.830;2023-08-12T12:21:03;3.08;;;1.40;;
44832;SDS011;30569;51.252;9.830;2023-08-12T12:23:29;3.45;;;1.40;;
44832;SDS011;30569;51.252;9.830;2023-08-12T12:26:02;3.70;;;1.60;;
44832;SDS011;30569;51.252;9.830;2023-08-12T12:28:28;3.05;;;1.40;;
44832;SDS011;30569;51.252;9.830;2023-08-12T12:30:54;3.92;;;1.67;;
44832;SDS011;30569;51.252;9.830;2023-08-12T12:33:20;3.60;;;1.50;;
44832;SDS011;30569;51.252;9.830;2023-08-12T12:35:45;5.35;;;1.55;;
44832;SDS011;30569;51.252;9.830;2023-08-12T12:38:11;3.30;;;1.40;;
44832;SDS011;30569;51.252;9.830;2023-08-12T12:40:36;4.82;;;1.70;;
44832;SDS011;30569;51.252;9.830;2023-08-12T12:43:03;5.80;;;1.55;;
44832;SDS011;30569;51.252;9.830;2023-08-12T12:45:29;6.60;;;1.42;;
44832;SDS011;30569;51.252;9.830;2023-08-12T12:47:54;3.45;;;1.50;;
44832;SDS011;30569;51.252;9.830;2023-08-12T12:50:20;3.20;;;1.50;;
44832;SDS011;30569;51.252;9.830;2023-08-12T12:52:46;6.00;;;2.58;;
44832;SDS011;30569;51.252;9.830;2023-08-12T12:55:12;3.20;;;1.50;;
44832;SDS011;30569;51.252;9.830;2023-08-12T12:57:37;4.78;;;1.80;;
44832;SDS011;30569;51.252;9.830;2023-08-12T13:00:03;6.25;;;1.90;;
44832;SDS011;30569;51.252;9.830;2023-08-12T13:02:29;3.30;;;1.77;;
44832;SDS011;30569;51.252;9.830;2023-08-12T13:04:54;3.42;;;1.52;;
44832;SDS011;30569;51.252;9.830;2023-08-12T13:07:20;5.03;;;2.03;;
44832;SDS011;30569;51.252;9.830;2023-08-12T13:09:46;3.78;;;1.65;;
44832;SDS011;30569;51.252;9.830;2023-08-12T13:12:11;3.90;;;1.95;;
44832;SDS011;30569;51.252;9.830;2023-08-12T13:14:37;4.00;;;1.73;;
44832;SDS011;30569;51.252;9.830;2023-08-12T13:17:03;4.68;;;1.80;;
44832;SDS011;30569;51.252;9.830;2023-08-12T13:19:28;4.25;;;2.00;;
44832;SDS011;30569;51.252;9.830;2023-08-12T13:21:54;3.90;;;2.00;;
44832;SDS011;30569;51.252;9.830;2023-08-12T13:24:19;5.13;;;2.22;;
44832;SDS011;30569;51.252;9.830;2023-08-12T13:26:45;5.05;;;1.90;;
44832;SDS011;30569;51.252;9.830;2023-08-12T13:29:11;4.03;;;1.50;;
44832;SDS011;30569;51.252;9.830;2023-08-12T13:31:36;3.75;;;1.60;;
44832;SDS011;30569;51.252;9.830;2023-08-12T13:34:02;4.25;;;1.60;;
44832;SDS011;30569;51.252;9.830;2023-08-12T13:36:28;3.50;;;1.60;;
44832;SDS011;30569;51.252;9.830;2023-08-12T13:38:54;3.70;;;1.83;;
44832;SDS011;30569;51.252;9.830;2023-08-12T13:41:20;3.70;;;1.75;;
44832;SDS011;30569;51.252;9.830;2023-08-12T13:43:45;4.75;;;2.33;;
44832;SDS011;30569;51.252;9.830;2023-08-12T13:46:11;4.30;;;1.95;;
44832;SDS011;30569;51.252;9.830;2023-08-12T13:48:36;3.70;;;1.70;;
44832;SDS011;30569;51.252;9.830;2023-08-12T13:51:02;5.20;;;3.00;;
44832;SDS011;30569;51.252;9.830;2023-08-12T13:53:28;4.25;;;2.03;;
44832;SDS011;30569;51.252;9.830;2023-08-12T13:55:53;4.32;;;1.90;;
44832;SDS011;30569;51.252;9.830;2023-08-12T13:58:19;4.88;;;2.10;;
44832;SDS011;30569;51.252;9.830;2023-08-12T14:00:44;4.20;;;2.17;;
44832;SDS011;30569;51.252;9.830;2023-08-12T14:03:10;3.97;;;2.00;;
44832;SDS011;30569;51.252;9.830;2023-08-12T14:05:36;6.25;;;1.88;;
44832;SDS011;30569;51.252;9.830;2023-08-12T14:08:01;4.63;;;2.00;;
44832;SDS011;30569;51.252;9.830;2023-08-12T14:10:27;4.13;;;1.88;;
44832;SDS011;30569;51.252;9.830;2023-08-12T14:12:52;6.47;;;2.03;;
44832;SDS011;30569;51.252;9.830;2023-08-12T14:15:18;5.95;;;1.92;;
44832;SDS011;30569;51.252;9.830;2023-08-12T14:17:44;4.15;;;1.92;;
44832;SDS011;30569;51.252;9.830;2023-08-12T14:20:09;5.05;;;1.90;;
44832;SDS011;30569;51.252;9.830;2023-08-12T14:22:35;4.22;;;1.98;;
44832;SDS011;30569;51.252;9.830;2023-08-12T14:25:04;3.88;;;1.70;;
44832;SDS011;30569;51.252;9.830;2023-08-12T14:27:30;6.57;;;2.17;;
44832;SDS011;30569;51.252;9.830;2023-08-12T14:29:56;5.53;;;2.22;;
44832;SDS011;30569;51.252;9.830;2023-08-12T14:32:22;4.28;;;2.10;;
44832;SDS011;30569;51.252;9.830;2023-08-12T14:34:47;5.93;;;2.50;;
44832;SDS011;30569;51.252;9.830;2023-08-12T14:37:13;4.05;;;2.05;;
44832;SDS011;30569;51.252;9.830;2023-08-12T14:39:38;5.05;;;2.40;;
44832;SDS011;30569;51.252;9.830;2023-08-12T14:42:05;5.07;;;2.30;;
44832;SDS011;30569;51.252;9.830;2023-08-12T14:44:33;4.50;;;2.10;;
44832;SDS011;30569;51.252;9.830;2023-08-12T14:47:00;5.45;;;2.50;;
44832;SDS011;30569;51.252;9.830;2023-08-12T14:49:25;4.38;;;2.15;;
44832;SDS011;30569;51.252;9.830;2023-08-12T14:51:51;7.78;;;2.30;;